Orbital elements of COSMOS 733
| Launched | 27 May 1975 |
| Flight ended | – |
| Launch site | Plesetsk Missile and Space Complex, Russia |
| Owner | Commonwealth of Independent States (former USSR) |
| NORAD ID | 7822 |
| Date fetched |
Epoch osculation |
Inc. [°] |
Ecc. | RA asc node [hr] |
Arg Peri. [°] |
Mean anom [°] |
Mean motion [rev/day] |
Abs. mag |
| Date fetched |
Epoch osculation |
Inc. [°] |
Ecc. | RA asc node [hr] |
Arg Peri. [°] |
Mean anom [°] |
Mean motion [rev/day] |
Abs. mag |
| 2026 May 05 17:57 | 2026 May 05 12:42:46 | 74.0153 | 0.00539 | 10.2250 | 263.7356 | 169.1348 | 12.38842 | – |
| 2026 May 04 17:57 | 2026 Apr 30 12:45:26 | 74.0160 | 0.00539 | 10.6590 | 271.0069 | 169.1348 | 12.38842 | – |
| 2026 May 03 17:57 | 2026 Apr 30 12:45:26 | 74.0160 | 0.00539 | 10.6590 | 271.0069 | 169.1348 | 12.38842 | – |
| 2026 May 02 17:57 | 2026 Apr 30 12:45:26 | 74.0160 | 0.00539 | 10.6590 | 271.0069 | 169.1348 | 12.38842 | – |
| 2026 May 01 17:56 | 2026 Apr 30 12:45:26 | 74.0160 | 0.00539 | 10.6590 | 271.0069 | 169.1348 | 12.38842 | – |
| 2026 Apr 30 17:56 | 2026 Apr 30 12:45:26 | 74.0160 | 0.00539 | 10.6590 | 271.0069 | 169.1348 | 12.38842 | – |
| 2026 Apr 29 17:57 | 2026 Apr 24 13:08:04 | 74.0170 | 0.00539 | 11.1786 | 279.7135 | 169.1348 | 12.38842 | – |
| 2026 Apr 28 17:56 | 2026 Apr 24 13:08:04 | 74.0170 | 0.00539 | 11.1786 | 279.7135 | 169.1348 | 12.38842 | – |
| 2026 Apr 27 17:58 | 2026 Apr 24 13:08:04 | 74.0170 | 0.00539 | 11.1786 | 279.7135 | 169.1348 | 12.38842 | – |
| 2026 Apr 26 17:58 | 2026 Apr 24 13:08:04 | 74.0170 | 0.00539 | 11.1786 | 279.7135 | 169.1348 | 12.38842 | – |
| 2026 Apr 25 17:58 | 2026 Apr 24 13:08:04 | 74.0170 | 0.00539 | 11.1786 | 279.7135 | 169.1348 | 12.38842 | – |
| 2026 Apr 24 17:59 | 2026 Apr 24 13:08:04 | 74.0170 | 0.00539 | 11.1786 | 279.7135 | 169.1348 | 12.38842 | – |
| 2026 Apr 23 17:57 | 2026 Apr 19 12:57:45 | 74.0179 | 0.00539 | 11.6133 | 287.0056 | 169.1348 | 12.38842 | – |
| 2026 Apr 22 17:57 | 2026 Apr 19 12:57:45 | 74.0179 | 0.00539 | 11.6133 | 287.0056 | 169.1348 | 12.38842 | – |
| 2026 Apr 21 17:57 | 2026 Apr 19 12:57:45 | 74.0179 | 0.00539 | 11.6133 | 287.0056 | 169.1348 | 12.38842 | – |
| 2026 Apr 20 17:57 | 2026 Apr 19 12:57:45 | 74.0179 | 0.00539 | 11.6133 | 287.0056 | 169.1348 | 12.38842 | – |
| 2026 Apr 19 17:58 | 2026 Apr 19 12:57:45 | 74.0179 | 0.00539 | 11.6133 | 287.0056 | 169.1348 | 12.38842 | – |
| 2026 Apr 18 17:56 | 2026 Apr 13 05:47:11 | 74.0185 | 0.00538 | 12.1601 | 296.1974 | 169.1348 | 12.38842 | – |
| 2026 Apr 16 17:57 | 2026 Apr 13 05:47:11 | 74.0185 | 0.00538 | 12.1601 | 296.1974 | 169.1348 | 12.38842 | – |
| 2026 Apr 14 17:57 | 2026 Apr 13 05:47:11 | 74.0185 | 0.00538 | 12.1601 | 296.1974 | 169.1348 | 12.38842 | – |
| 2026 Apr 13 17:57 | 2026 Apr 13 05:47:11 | 74.0185 | 0.00538 | 12.1601 | 296.1974 | 169.1348 | 12.38842 | – |
| 2026 Apr 12 17:57 | 2026 Apr 08 13:06:24 | 74.0192 | 0.00537 | 12.5677 | 303.0353 | 169.1348 | 12.38842 | – |
| 2026 Apr 11 17:57 | 2026 Apr 08 13:06:24 | 74.0192 | 0.00537 | 12.5677 | 303.0353 | 169.1348 | 12.38842 | – |
| 2026 Apr 10 17:58 | 2026 Apr 08 13:06:24 | 74.0192 | 0.00537 | 12.5677 | 303.0353 | 169.1348 | 12.38842 | – |
| 2026 Apr 09 18:01 | 2026 Apr 08 13:06:24 | 74.0192 | 0.00537 | 12.5677 | 303.0353 | 169.1348 | 12.38842 | – |
| 2026 Apr 08 17:57 | 2026 Apr 08 13:06:24 | 74.0192 | 0.00537 | 12.5677 | 303.0353 | 169.1348 | 12.38842 | – |